Terminal Aerodrome Forecast
Issued by NWS Kansas City/Pleasant Hill, MO

Home | Current Version | Previous Version | Text Only | Print | Product List | Glossary On
Versions: 1 2 3 4 5 6 7 8 9 10 11 12 13
000
FTUS43 KEAX 220500
TAFMCI
TAF
KMCI 220520Z 2206/2306 12010KT P6SM SKC
     FM221000 13011KT P6SM BKN050
     FM221300 14011KT P6SM VCSH BKN035
     FM221700 15010KT P6SM SCT030=

USA.gov is the U.S. government's official web portal to all federal, state and local government web resources and services.